Tulare, CA

11:27 AM PST on December 20, 2014 (GMT -0800)
Lemoore Naval Air Station | Change Station
CLOSE
Current Station
Airport
Location: Lemoore NAS,
Elevation: 233 ft
Nearby Weather Stations

Elev 233 ft 36.33 °N, 119.95 °W | Updated 31 minutes ago

Overcast
Overcast
56 °F
Feels Like 56 °F
N
5
Wind Variable Wind from East

Today
High -- | Low -- °F
--% Chance of Precip.
Yesterday
High -- | Low -- °F
Precip. -- in
7:04 AM 4:45 PM
Waning Crescent, 2% visible
Pressure 30.23 in
Visibility -9999.0 miles
Clouds Mostly Cloudy 9000 ft
Overcast 11000 ft
Dew Point 50 °F
Humidity 80%
Rainfall 0.01 in
Snow Depth Not available.
UV 1 out of 12
Pollen 3.30 out of 12
Air Quality Not available.
Flu Activity Not available.
METAR KNLC 201856Z AUTO 09004KT BKN090 OVC110 13/10 A3022 RMK AO2 SLP235 T01330100 RVRNO $

More Conditions Fewer Conditions

Pressure 30.23 in
Visibility -9999.0 miles
Clouds Mostly Cloudy 9000 ft
Overcast 11000 ft
Dew Point 50 °F
Humidity 80%
Rainfall 0.01 in
Snow Depth Not available.
UV 1 out of 12
Pollen 3.30 out of 12
Air Quality Not available.
Flu Activity Not available.
METAR KNLC 201856Z AUTO 09004KT BKN090 OVC110 13/10 A3022 RMK AO2 SLP235 T01330100 RVRNO $

More Conditions Fewer Conditions

10-Day Weather Forecast

Almanac

Astronomy

Dec. 20, 2014 Rise Set
Actual Time
Civil Twilight
Nautical Twilight
Astronomical Twilight
Moon
Length of Visible Light
Length of Day
Tomorrow will be .
, % of the Moon is Illuminated

Today's Extremes

State Highs State Lows

Community

WunderPhotos

Upload Photos

1,779,256 photos uploaded!

WunderBlogs® & News

Nearby

Air Quality

  Air Quality AQ Index Pollutant
Not available.

Snow Depth

Station Depth Elevation

Earthquake Activity

City Distance Mag. Time & Date
Minimum magnitude displayed is 2.5.

Coastal Water Temperatures

Place Temperature

Nearby Weather Stations